sensor_id;sensor_type;location;lat;lon;timestamp;P1;durP1;ratioP1;P2;durP2;ratioP2
31282;SDS011;17915;52.540;13.604;2023-11-18T00:01:45;10.57;;;8.37;;
31282;SDS011;17915;52.540;13.604;2023-11-18T00:04:11;11.03;;;8.27;;
31282;SDS011;17915;52.540;13.604;2023-11-18T00:06:44;8.90;;;7.88;;
31282;SDS011;17915;52.540;13.604;2023-11-18T00:09:13;9.00;;;8.07;;
31282;SDS011;17915;52.540;13.604;2023-11-18T00:11:42;13.52;;;8.18;;
31282;SDS011;17915;52.540;13.604;2023-11-18T00:14:07;9.15;;;7.75;;
31282;SDS011;17915;52.540;13.604;2023-11-18T00:16:33;12.60;;;8.95;;
31282;SDS011;17915;52.540;13.604;2023-11-18T00:18:59;11.80;;;8.63;;
31282;SDS011;17915;52.540;13.604;2023-11-18T00:21:25;12.07;;;8.60;;
31282;SDS011;17915;52.540;13.604;2023-11-18T00:23:50;9.87;;;8.23;;
31282;SDS011;17915;52.540;13.604;2023-11-18T00:26:16;10.57;;;8.37;;
31282;SDS011;17915;52.540;13.604;2023-11-18T00:28:41;12.17;;;8.77;;
31282;SDS011;17915;52.540;13.604;2023-11-18T00:31:07;13.53;;;8.77;;
31282;SDS011;17915;52.540;13.604;2023-11-18T00:33:32;13.47;;;9.50;;
31282;SDS011;17915;52.540;13.604;2023-11-18T00:35:58;14.23;;;8.77;;
31282;SDS011;17915;52.540;13.604;2023-11-18T00:38:25;10.52;;;7.78;;
31282;SDS011;17915;52.540;13.604;2023-11-18T00:40:50;11.30;;;7.80;;
31282;SDS011;17915;52.540;13.604;2023-11-18T00:43:16;8.80;;;7.90;;
31282;SDS011;17915;52.540;13.604;2023-11-18T00:45:42;11.85;;;7.35;;
31282;SDS011;17915;52.540;13.604;2023-11-18T00:48:08;8.50;;;7.60;;
31282;SDS011;17915;52.540;13.604;2023-11-18T00:50:34;8.87;;;8.00;;
31282;SDS011;17915;52.540;13.604;2023-11-18T00:52:59;12.50;;;8.80;;
31282;SDS011;17915;52.540;13.604;2023-11-18T00:55:25;13.70;;;9.43;;
31282;SDS011;17915;52.540;13.604;2023-11-18T00:57:50;8.63;;;7.53;;
31282;SDS011;17915;52.540;13.604;2023-11-18T01:00:15;9.30;;;7.70;;
31282;SDS011;17915;52.540;13.604;2023-11-18T01:02:44;12.63;;;9.43;;
31282;SDS011;17915;52.540;13.604;2023-11-18T01:05:10;9.40;;;8.15;;
31282;SDS011;17915;52.540;13.604;2023-11-18T01:07:36;11.07;;;8.80;;
31282;SDS011;17915;52.540;13.604;2023-11-18T01:10:05;8.50;;;7.78;;
31282;SDS011;17915;52.540;13.604;2023-11-18T01:12:32;9.70;;;8.55;;
31282;SDS011;17915;52.540;13.604;2023-11-18T01:14:57;9.73;;;8.20;;
31282;SDS011;17915;52.540;13.604;2023-11-18T01:17:23;12.07;;;8.47;;
31282;SDS011;17915;52.540;13.604;2023-11-18T01:19:49;12.48;;;8.80;;
31282;SDS011;17915;52.540;13.604;2023-11-18T01:22:14;14.80;;;8.20;;
31282;SDS011;17915;52.540;13.604;2023-11-18T01:24:40;13.23;;;8.13;;
31282;SDS011;17915;52.540;13.604;2023-11-18T01:27:05;10.40;;;8.37;;
31282;SDS011;17915;52.540;13.604;2023-11-18T01:29:34;9.82;;;8.93;;
31282;SDS011;17915;52.540;13.604;2023-11-18T01:32:00;13.20;;;10.83;;
31282;SDS011;17915;52.540;13.604;2023-11-18T01:34:26;11.97;;;9.27;;
31282;SDS011;17915;52.540;13.604;2023-11-18T01:36:53;14.38;;;9.70;;
31282;SDS011;17915;52.540;13.604;2023-11-18T01:39:18;11.20;;;9.47;;
31282;SDS011;17915;52.540;13.604;2023-11-18T01:41:44;9.67;;;8.70;;
31282;SDS011;17915;52.540;13.604;2023-11-18T01:46:35;16.50;;;8.55;;
31282;SDS011;17915;52.540;13.604;2023-11-18T01:49:02;23.07;;;10.30;;
31282;SDS011;17915;52.540;13.604;2023-11-18T01:51:29;13.45;;;9.38;;
31282;SDS011;17915;52.540;13.604;2023-11-18T01:53:55;13.15;;;9.07;;
31282;SDS011;17915;52.540;13.604;2023-11-18T01:56:22;13.60;;;8.63;;
31282;SDS011;17915;52.540;13.604;2023-11-18T01:58:50;11.95;;;8.85;;
31282;SDS011;17915;52.540;13.604;2023-11-18T02:01:16;15.45;;;8.98;;
31282;SDS011;17915;52.540;13.604;2023-11-18T02:06:08;9.32;;;8.18;;
31282;SDS011;17915;52.540;13.604;2023-11-18T02:08:35;12.68;;;8.88;;
31282;SDS011;17915;52.540;13.604;2023-11-18T02:13:36;10.25;;;7.85;;
31282;SDS011;17915;52.540;13.604;2023-11-18T02:16:04;11.63;;;7.90;;
31282;SDS011;17915;52.540;13.604;2023-11-18T02:18:29;10.13;;;8.83;;
31282;SDS011;17915;52.540;13.604;2023-11-18T02:20:55;12.40;;;8.37;;
31282;SDS011;17915;52.540;13.604;2023-11-18T02:23:24;9.65;;;7.82;;
31282;SDS011;17915;52.540;13.604;2023-11-18T02:25:51;12.13;;;9.52;;
31282;SDS011;17915;52.540;13.604;2023-11-18T02:28:17;9.15;;;7.55;;
31282;SDS011;17915;52.540;13.604;2023-11-18T02:30:43;9.30;;;7.43;;
31282;SDS011;17915;52.540;13.604;2023-11-18T02:35:45;10.45;;;8.00;;
31282;SDS011;17915;52.540;13.604;2023-11-18T02:38:15;10.60;;;7.47;;
31282;SDS011;17915;52.540;13.604;2023-11-18T02:40:44;9.77;;;7.30;;
31282;SDS011;17915;52.540;13.604;2023-11-18T02:43:11;9.55;;;7.65;;
31282;SDS011;17915;52.540;13.604;2023-11-18T02:45:37;7.07;;;6.37;;
31282;SDS011;17915;52.540;13.604;2023-11-18T02:48:03;8.73;;;7.33;;
31282;SDS011;17915;52.540;13.604;2023-11-18T02:50:31;7.47;;;6.68;;
31282;SDS011;17915;52.540;13.604;2023-11-18T02:52:57;9.00;;;7.60;;
31282;SDS011;17915;52.540;13.604;2023-11-18T02:55:22;7.17;;;6.27;;
31282;SDS011;17915;52.540;13.604;2023-11-18T02:57:49;9.82;;;6.75;;
31282;SDS011;17915;52.540;13.604;2023-11-18T03:00:16;8.55;;;6.25;;
31282;SDS011;17915;52.540;13.604;2023-11-18T03:02:43;10.85;;;7.45;;
31282;SDS011;17915;52.540;13.604;2023-11-18T03:05:08;7.47;;;6.70;;
31282;SDS011;17915;52.540;13.604;2023-11-18T03:07:37;8.93;;;5.95;;
31282;SDS011;17915;52.540;13.604;2023-11-18T03:10:03;7.53;;;6.75;;
31282;SDS011;17915;52.540;13.604;2023-11-18T03:12:34;9.45;;;6.47;;
31282;SDS011;17915;52.540;13.604;2023-11-18T03:15:00;8.38;;;6.18;;
31282;SDS011;17915;52.540;13.604;2023-11-18T03:17:26;9.10;;;8.20;;
31282;SDS011;17915;52.540;13.604;2023-11-18T03:19:51;13.03;;;8.30;;
31282;SDS011;17915;52.540;13.604;2023-11-18T03:22:17;8.20;;;6.90;;
31282;SDS011;17915;52.540;13.604;2023-11-18T03:24:42;9.43;;;8.43;;
31282;SDS011;17915;52.540;13.604;2023-11-18T03:27:07;12.17;;;7.53;;
31282;SDS011;17915;52.540;13.604;2023-11-18T03:29:33;10.50;;;8.13;;
31282;SDS011;17915;52.540;13.604;2023-11-18T03:31:59;9.10;;;7.30;;
31282;SDS011;17915;52.540;13.604;2023-11-18T03:34:24;7.67;;;6.80;;
31282;SDS011;17915;52.540;13.604;2023-11-18T03:36:50;9.40;;;7.43;;
31282;SDS011;17915;52.540;13.604;2023-11-18T03:39:16;8.73;;;7.60;;
31282;SDS011;17915;52.540;13.604;2023-11-18T03:41:41;7.67;;;6.63;;
31282;SDS011;17915;52.540;13.604;2023-11-18T03:44:09;9.57;;;7.65;;
31282;SDS011;17915;52.540;13.604;2023-11-18T03:46:36;12.73;;;7.47;;
31282;SDS011;17915;52.540;13.604;2023-11-18T03:49:02;7.87;;;7.17;;
31282;SDS011;17915;52.540;13.604;2023-11-18T03:51:28;9.30;;;6.90;;
31282;SDS011;17915;52.540;13.604;2023-11-18T03:53:54;6.55;;;5.78;;
31282;SDS011;17915;52.540;13.604;2023-11-18T03:56:19;13.97;;;7.17;;
31282;SDS011;17915;52.540;13.604;2023-11-18T03:58:45;6.40;;;5.80;;
31282;SDS011;17915;52.540;13.604;2023-11-18T04:01:20;8.93;;;6.25;;
31282;SDS011;17915;52.540;13.604;2023-11-18T04:03:48;8.88;;;6.30;;
31282;SDS011;17915;52.540;13.604;2023-11-18T04:06:15;7.50;;;6.10;;
31282;SDS011;17915;52.540;13.604;2023-11-18T04:08:43;9.23;;;6.55;;
31282;SDS011;17915;52.540;13.604;2023-11-18T04:11:09;7.82;;;6.97;;
31282;SDS011;17915;52.540;13.604;2023-11-18T04:13:35;9.03;;;6.80;;
31282;SDS011;17915;52.540;13.604;2023-11-18T04:16:00;12.80;;;6.93;;
31282;SDS011;17915;52.540;13.604;2023-11-18T04:18:26;8.43;;;6.17;;
31282;SDS011;17915;52.540;13.604;2023-11-18T04:20:51;7.33;;;6.33;;
31282;SDS011;17915;52.540;13.604;2023-11-18T04:23:17;15.75;;;6.20;;
31282;SDS011;17915;52.540;13.604;2023-11-18T04:25:43;8.07;;;6.27;;
31282;SDS011;17915;52.540;13.604;2023-11-18T04:28:08;9.67;;;5.70;;
31282;SDS011;17915;52.540;13.604;2023-11-18T04:30:35;8.68;;;7.35;;
31282;SDS011;17915;52.540;13.604;2023-11-18T04:33:00;9.90;;;6.07;;
31282;SDS011;17915;52.540;13.604;2023-11-18T04:35:26;13.00;;;7.47;;
31282;SDS011;17915;52.540;13.604;2023-11-18T04:37:51;4.97;;;4.53;;
31282;SDS011;17915;52.540;13.604;2023-11-18T04:40:17;6.60;;;5.60;;
31282;SDS011;17915;52.540;13.604;2023-11-18T04:42:42;8.37;;;5.20;;
31282;SDS011;17915;52.540;13.604;2023-11-18T04:45:07;8.60;;;5.37;;
31282;SDS011;17915;52.540;13.604;2023-11-18T04:47:34;5.97;;;5.47;;
31282;SDS011;17915;52.540;13.604;2023-11-18T04:50:01;7.55;;;4.90;;
31282;SDS011;17915;52.540;13.604;2023-11-18T04:52:28;5.53;;;4.88;;
31282;SDS011;17915;52.540;13.604;2023-11-18T04:54:53;5.83;;;5.10;;
31282;SDS011;17915;52.540;13.604;2023-11-18T04:57:19;9.50;;;5.28;;
31282;SDS011;17915;52.540;13.604;2023-11-18T04:59:45;10.17;;;4.80;;
31282;SDS011;17915;52.540;13.604;2023-11-18T05:02:10;5.57;;;5.13;;
31282;SDS011;17915;52.540;13.604;2023-11-18T05:04:36;8.70;;;5.60;;
31282;SDS011;17915;52.540;13.604;2023-11-18T05:07:01;7.10;;;4.83;;
31282;SDS011;17915;52.540;13.604;2023-11-18T05:09:27;5.47;;;4.88;;
31282;SDS011;17915;52.540;13.604;2023-11-18T05:11:52;6.17;;;5.50;;
31282;SDS011;17915;52.540;13.604;2023-11-18T05:14:18;5.70;;;5.17;;
31282;SDS011;17915;52.540;13.604;2023-11-18T05:16:44;14.80;;;5.38;;
31282;SDS011;17915;52.540;13.604;2023-11-18T05:19:09;5.27;;;4.77;;
31282;SDS011;17915;52.540;13.604;2023-11-18T05:21:35;7.38;;;4.80;;
31282;SDS011;17915;52.540;13.604;2023-11-18T05:24:00;9.50;;;5.27;;
31282;SDS011;17915;52.540;13.604;2023-11-18T05:26:26;5.77;;;5.30;;
31282;SDS011;17915;52.540;13.604;2023-11-18T05:28:52;7.70;;;6.65;;
31282;SDS011;17915;52.540;13.604;2023-11-18T05:31:17;8.50;;;6.63;;
31282;SDS011;17915;52.540;13.604;2023-11-18T05:33:43;7.80;;;6.30;;
31282;SDS011;17915;52.540;13.604;2023-11-18T05:36:16;9.00;;;7.00;;
31282;SDS011;17915;52.540;13.604;2023-11-18T05:38:42;10.07;;;6.67;;
31282;SDS011;17915;52.540;13.604;2023-11-18T05:41:08;9.50;;;6.35;;
31282;SDS011;17915;52.540;13.604;2023-11-18T05:43:41;10.38;;;6.82;;
31282;SDS011;17915;52.540;13.604;2023-11-18T05:46:07;7.53;;;6.83;;
31282;SDS011;17915;52.540;13.604;2023-11-18T05:48:45;10.55;;;6.95;;
31282;SDS011;17915;52.540;13.604;2023-11-18T05:51:11;7.57;;;6.93;;
31282;SDS011;17915;52.540;13.604;2023-11-18T05:53:40;9.63;;;7.07;;
31282;SDS011;17915;52.540;13.604;2023-11-18T05:56:07;14.35;;;7.53;;
31282;SDS011;17915;52.540;13.604;2023-11-18T05:58:32;7.28;;;6.55;;
31282;SDS011;17915;52.540;13.604;2023-11-18T06:00:58;14.57;;;6.95;;
31282;SDS011;17915;52.540;13.604;2023-11-18T06:03:25;10.38;;;7.75;;
31282;SDS011;17915;52.540;13.604;2023-11-18T06:05:50;28.20;;;7.27;;
31282;SDS011;17915;52.540;13.604;2023-11-18T06:10:42;7.28;;;5.80;;
31282;SDS011;17915;52.540;13.604;2023-11-18T06:13:09;5.93;;;5.32;;
31282;SDS011;17915;52.540;13.604;2023-11-18T06:15:38;11.68;;;6.38;;
31282;SDS011;17915;52.540;13.604;2023-11-18T06:18:03;10.73;;;6.53;;
31282;SDS011;17915;52.540;13.604;2023-11-18T06:20:30;9.65;;;7.05;;
31282;SDS011;17915;52.540;13.604;2023-11-18T06:22:55;9.30;;;7.40;;
31282;SDS011;17915;52.540;13.604;2023-11-18T06:25:22;8.27;;;6.70;;
31282;SDS011;17915;52.540;13.604;2023-11-18T06:27:51;8.38;;;6.03;;
31282;SDS011;17915;52.540;13.604;2023-11-18T06:30:17;6.47;;;5.57;;
31282;SDS011;17915;52.540;13.604;2023-11-18T06:32:44;8.68;;;5.20;;
31282;SDS011;17915;52.540;13.604;2023-11-18T06:35:12;5.47;;;4.75;;
31282;SDS011;17915;52.540;13.604;2023-11-18T06:37:39;7.70;;;3.58;;
31282;SDS011;17915;52.540;13.604;2023-11-18T06:40:05;3.83;;;2.90;;
31282;SDS011;17915;52.540;13.604;2023-11-18T06:42:41;3.72;;;3.42;;
31282;SDS011;17915;52.540;13.604;2023-11-18T06:45:07;6.55;;;4.28;;
31282;SDS011;17915;52.540;13.604;2023-11-18T06:47:34;3.80;;;3.50;;
31282;SDS011;17915;52.540;13.604;2023-11-18T06:50:01;7.25;;;4.32;;
31282;SDS011;17915;52.540;13.604;2023-11-18T06:52:26;4.70;;;4.30;;
31282;SDS011;17915;52.540;13.604;2023-11-18T06:54:53;4.10;;;3.80;;
31282;SDS011;17915;52.540;13.604;2023-11-18T06:59:45;5.45;;;4.53;;
31282;SDS011;17915;52.540;13.604;2023-11-18T07:02:10;4.47;;;4.10;;
31282;SDS011;17915;52.540;13.604;2023-11-18T07:04:35;9.60;;;5.73;;
31282;SDS011;17915;52.540;13.604;2023-11-18T07:07:03;9.95;;;7.15;;
31282;SDS011;17915;52.540;13.604;2023-11-18T07:09:28;8.53;;;6.73;;
31282;SDS011;17915;52.540;13.604;2023-11-18T07:11:54;11.00;;;6.10;;
31282;SDS011;17915;52.540;13.604;2023-11-18T07:14:21;8.10;;;6.10;;
31282;SDS011;17915;52.540;13.604;2023-11-18T07:16:47;8.32;;;5.93;;
31282;SDS011;17915;52.540;13.604;2023-11-18T07:19:12;11.70;;;7.73;;
31282;SDS011;17915;52.540;13.604;2023-11-18T07:21:45;9.13;;;7.20;;
31282;SDS011;17915;52.540;13.604;2023-11-18T07:24:11;13.90;;;8.50;;
31282;SDS011;17915;52.540;13.604;2023-11-18T07:26:37;12.68;;;7.90;;
31282;SDS011;17915;52.540;13.604;2023-11-18T07:29:02;11.20;;;8.47;;
31282;SDS011;17915;52.540;13.604;2023-11-18T07:31:28;10.23;;;7.43;;
31282;SDS011;17915;52.540;13.604;2023-11-18T07:33:54;13.90;;;8.63;;
31282;SDS011;17915;52.540;13.604;2023-11-18T07:36:19;11.17;;;9.10;;
31282;SDS011;17915;52.540;13.604;2023-11-18T07:38:48;12.63;;;8.73;;
31282;SDS011;17915;52.540;13.604;2023-11-18T07:41:15;16.05;;;8.90;;
31282;SDS011;17915;52.540;13.604;2023-11-18T07:43:51;17.73;;;8.43;;
31282;SDS011;17915;52.540;13.604;2023-11-18T07:46:23;14.35;;;8.73;;
31282;SDS011;17915;52.540;13.604;2023-11-18T07:48:49;25.00;;;14.35;;
31282;SDS011;17915;52.540;13.604;2023-11-18T07:51:16;25.08;;;13.10;;
31282;SDS011;17915;52.540;13.604;2023-11-18T07:53:48;29.02;;;14.65;;
31282;SDS011;17915;52.540;13.604;2023-11-18T07:56:14;18.05;;;11.45;;
31282;SDS011;17915;52.540;13.604;2023-11-18T07:58:41;20.40;;;11.10;;
31282;SDS011;17915;52.540;13.604;2023-11-18T08:01:10;14.70;;;9.93;;
31282;SDS011;17915;52.540;13.604;2023-11-18T08:03:36;15.63;;;9.57;;
31282;SDS011;17915;52.540;13.604;2023-11-18T08:06:02;20.98;;;10.10;;
31282;SDS011;17915;52.540;13.604;2023-11-18T08:08:28;15.48;;;10.13;;
31282;SDS011;17915;52.540;13.604;2023-11-18T08:10:53;13.23;;;10.33;;
31282;SDS011;17915;52.540;13.604;2023-11-18T08:13:20;16.70;;;10.77;;
31282;SDS011;17915;52.540;13.604;2023-11-18T08:15:46;16.40;;;10.38;;
31282;SDS011;17915;52.540;13.604;2023-11-18T08:18:12;15.00;;;9.27;;
31282;SDS011;17915;52.540;13.604;2023-11-18T08:20:37;13.13;;;9.23;;
31282;SDS011;17915;52.540;13.604;2023-11-18T08:23:03;14.60;;;9.40;;
31282;SDS011;17915;52.540;13.604;2023-11-18T08:25:31;10.93;;;9.07;;
31282;SDS011;17915;52.540;13.604;2023-11-18T08:28:00;15.35;;;9.43;;
31282;SDS011;17915;52.540;13.604;2023-11-18T08:30:26;9.70;;;7.05;;
31282;SDS011;17915;52.540;13.604;2023-11-18T08:32:52;11.65;;;8.60;;
31282;SDS011;17915;52.540;13.604;2023-11-18T08:35:18;14.73;;;8.73;;
31282;SDS011;17915;52.540;13.604;2023-11-18T08:37:44;13.27;;;8.77;;
31282;SDS011;17915;52.540;13.604;2023-11-18T08:40:10;15.55;;;8.75;;
31282;SDS011;17915;52.540;13.604;2023-11-18T08:42:50;14.15;;;9.00;;
31282;SDS011;17915;52.540;13.604;2023-11-18T08:45:16;12.50;;;8.40;;
31282;SDS011;17915;52.540;13.604;2023-11-18T08:47:43;13.10;;;8.82;;
31282;SDS011;17915;52.540;13.604;2023-11-18T08:50:11;21.10;;;9.07;;
31282;SDS011;17915;52.540;13.604;2023-11-18T08:52:38;11.77;;;7.65;;
31282;SDS011;17915;52.540;13.604;2023-11-18T08:55:09;11.38;;;7.97;;
31282;SDS011;17915;52.540;13.604;2023-11-18T08:57:38;9.02;;;7.72;;
31282;SDS011;17915;52.540;13.604;2023-11-18T09:00:17;7.35;;;6.65;;
31282;SDS011;17915;52.540;13.604;2023-11-18T09:03:02;8.02;;;7.03;;
31282;SDS011;17915;52.540;13.604;2023-11-18T09:05:30;8.07;;;6.53;;
31282;SDS011;17915;52.540;13.604;2023-11-18T09:07:57;17.90;;;8.43;;
31282;SDS011;17915;52.540;13.604;2023-11-18T09:10:25;10.43;;;7.25;;
31282;SDS011;17915;52.540;13.604;2023-11-18T09:12:51;11.02;;;7.90;;
31282;SDS011;17915;52.540;13.604;2023-11-18T09:15:18;10.00;;;7.05;;
31282;SDS011;17915;52.540;13.604;2023-11-18T09:17:50;12.38;;;7.13;;
31282;SDS011;17915;52.540;13.604;2023-11-18T09:20:16;9.43;;;5.75;;
31282;SDS011;17915;52.540;13.604;2023-11-18T09:22:47;10.30;;;6.63;;
31282;SDS011;17915;52.540;13.604;2023-11-18T09:25:13;7.60;;;6.28;;
31282;SDS011;17915;52.540;13.604;2023-11-18T09:27:39;6.95;;;6.25;;
31282;SDS011;17915;52.540;13.604;2023-11-18T09:30:05;9.30;;;6.30;;
31282;SDS011;17915;52.540;13.604;2023-11-18T09:32:39;9.32;;;6.40;;
31282;SDS011;17915;52.540;13.604;2023-11-18T09:35:07;9.82;;;6.15;;
31282;SDS011;17915;52.540;13.604;2023-11-18T09:37:37;8.05;;;6.80;;
31282;SDS011;17915;52.540;13.604;2023-11-18T09:40:02;13.90;;;6.40;;
31282;SDS011;17915;52.540;13.604;2023-11-18T09:42:39;9.07;;;6.50;;
31282;SDS011;17915;52.540;13.604;2023-11-18T09:45:05;6.82;;;5.72;;
31282;SDS011;17915;52.540;13.604;2023-11-18T09:47:33;6.97;;;5.78;;
31282;SDS011;17915;52.540;13.604;2023-11-18T09:50:02;8.82;;;6.45;;
31282;SDS011;17915;52.540;13.604;2023-11-18T09:57:32;5.30;;;3.55;;
31282;SDS011;17915;52.540;13.604;2023-11-18T10:00:05;6.85;;;4.60;;
31282;SDS011;17915;52.540;13.604;2023-11-18T10:02:50;4.32;;;4.00;;
31282;SDS011;17915;52.540;13.604;2023-11-18T10:05:16;4.47;;;4.07;;
31282;SDS011;17915;52.540;13.604;2023-11-18T10:07:45;4.10;;;3.78;;
31282;SDS011;17915;52.540;13.604;2023-11-18T10:10:15;4.90;;;4.30;;
31282;SDS011;17915;52.540;13.604;2023-11-18T10:12:44;5.47;;;4.03;;
31282;SDS011;17915;52.540;13.604;2023-11-18T10:15:13;3.90;;;3.65;;
31282;SDS011;17915;52.540;13.604;2023-11-18T10:17:41;4.18;;;3.85;;
31282;SDS011;17915;52.540;13.604;2023-11-18T10:20:20;5.10;;;4.60;;
31282;SDS011;17915;52.540;13.604;2023-11-18T10:22:54;4.93;;;4.45;;
31282;SDS011;17915;52.540;13.604;2023-11-18T10:25:30;6.13;;;4.38;;
31282;SDS011;17915;52.540;13.604;2023-11-18T10:27:59;3.45;;;3.25;;
31282;SDS011;17915;52.540;13.604;2023-11-18T10:30:27;5.25;;;3.20;;
31282;SDS011;17915;52.540;13.604;2023-11-18T10:32:56;3.73;;;3.10;;
31282;SDS011;17915;52.540;13.604;2023-11-18T10:35:34;3.80;;;3.50;;
31282;SDS011;17915;52.540;13.604;2023-11-18T10:38:02;4.80;;;4.38;;
31282;SDS011;17915;52.540;13.604;2023-11-18T10:40:34;4.60;;;4.10;;
31282;SDS011;17915;52.540;13.604;2023-11-18T10:43:02;8.30;;;5.22;;
31282;SDS011;17915;52.540;13.604;2023-11-18T10:45:34;8.88;;;6.43;;
31282;SDS011;17915;52.540;13.604;2023-11-18T10:48:04;5.75;;;4.78;;
31282;SDS011;17915;52.540;13.604;2023-11-18T10:50:31;5.15;;;4.07;;
31282;SDS011;17915;52.540;13.604;2023-11-18T10:52:58;5.85;;;4.57;;
31282;SDS011;17915;52.540;13.604;2023-11-18T10:55:34;4.97;;;4.55;;
31282;SDS011;17915;52.540;13.604;2023-11-18T10:58:03;5.50;;;5.00;;
31282;SDS011;17915;52.540;13.604;2023-11-18T11:00:52;7.77;;;6.97;;
31282;SDS011;17915;52.540;13.604;2023-11-18T11:03:25;4.47;;;4.05;;
31282;SDS011;17915;52.540;13.604;2023-11-18T11:05:51;7.50;;;4.43;;
31282;SDS011;17915;52.540;13.604;2023-11-18T11:08:19;10.15;;;4.55;;
31282;SDS011;17915;52.540;13.604;2023-11-18T11:10:45;4.75;;;4.30;;
31282;SDS011;17915;52.540;13.604;2023-11-18T11:13:13;4.10;;;3.80;;
31282;SDS011;17915;52.540;13.604;2023-11-18T11:15:43;7.90;;;4.25;;
31282;SDS011;17915;52.540;13.604;2023-11-18T11:18:14;5.78;;;4.25;;
31282;SDS011;17915;52.540;13.604;2023-11-18T11:20:52;4.30;;;3.90;;
31282;SDS011;17915;52.540;13.604;2023-11-18T11:34:09;7.60;;;3.92;;
31282;SDS011;17915;52.540;13.604;2023-11-18T11:36:42;5.47;;;4.60;;
31282;SDS011;17915;52.540;13.604;2023-11-18T11:39:08;6.15;;;4.53;;
31282;SDS011;17915;52.540;13.604;2023-11-18T11:41:39;4.90;;;4.50;;
31282;SDS011;17915;52.540;13.604;2023-11-18T11:44:09;7.57;;;4.82;;
31282;SDS011;17915;52.540;13.604;2023-11-18T11:46:35;4.97;;;4.68;;
31282;SDS011;17915;52.540;13.604;2023-11-18T11:49:02;6.50;;;4.47;;
31282;SDS011;17915;52.540;13.604;2023-11-18T11:55:15;5.65;;;5.13;;
31282;SDS011;17915;52.540;13.604;2023-11-18T11:57:41;6.43;;;5.50;;
31282;SDS011;17915;52.540;13.604;2023-11-18T12:00:10;5.53;;;5.03;;
31282;SDS011;17915;52.540;13.604;2023-11-18T12:02:48;9.63;;;4.75;;
31282;SDS011;17915;52.540;13.604;2023-11-18T12:05:17;6.50;;;5.90;;
31282;SDS011;17915;52.540;13.604;2023-11-18T12:07:54;7.30;;;5.88;;
31282;SDS011;17915;52.540;13.604;2023-11-18T12:10:20;6.28;;;5.68;;
31282;SDS011;17915;52.540;13.604;2023-11-18T12:12:46;8.57;;;6.18;;
31282;SDS011;17915;52.540;13.604;2023-11-18T12:15:11;8.00;;;6.53;;
31282;SDS011;17915;52.540;13.604;2023-11-18T12:23:07;11.15;;;8.20;;
31282;SDS011;17915;52.540;13.604;2023-11-18T12:25:48;8.05;;;7.35;;
31282;SDS011;17915;52.540;13.604;2023-11-18T12:28:29;9.85;;;8.70;;
31282;SDS011;17915;52.540;13.604;2023-11-18T12:30:59;8.45;;;6.43;;
31282;SDS011;17915;52.540;13.604;2023-11-18T12:41:35;11.20;;;7.93;;
31282;SDS011;17915;52.540;13.604;2023-11-18T12:47:24;8.70;;;7.15;;
31282;SDS011;17915;52.540;13.604;2023-11-18T12:49:53;8.30;;;6.95;;
31282;SDS011;17915;52.540;13.604;2023-11-18T12:52:21;8.95;;;7.50;;
31282;SDS011;17915;52.540;13.604;2023-11-18T12:54:48;8.57;;;7.00;;
31282;SDS011;17915;52.540;13.604;2023-11-18T12:57:19;10.60;;;7.80;;
31282;SDS011;17915;52.540;13.604;2023-11-18T12:59:47;7.72;;;6.95;;
31282;SDS011;17915;52.540;13.604;2023-11-18T13:02:13;8.50;;;7.90;;
31282;SDS011;17915;52.540;13.604;2023-11-18T13:04:43;8.07;;;7.38;;
31282;SDS011;17915;52.540;13.604;2023-11-18T13:07:12;6.90;;;6.22;;
31282;SDS011;17915;52.540;13.604;2023-11-18T13:12:06;15.27;;;7.63;;
31282;SDS011;17915;52.540;13.604;2023-11-18T13:14:34;7.75;;;6.95;;
31282;SDS011;17915;52.540;13.604;2023-11-18T13:17:04;8.35;;;6.75;;
31282;SDS011;17915;52.540;13.604;2023-11-18T13:19:31;7.55;;;6.85;;
31282;SDS011;17915;52.540;13.604;2023-11-18T13:22:02;7.75;;;7.03;;
31282;SDS011;17915;52.540;13.604;2023-11-18T13:24:32;11.43;;;6.82;;
31282;SDS011;17915;52.540;13.604;2023-11-18T13:26:58;7.40;;;6.70;;
31282;SDS011;17915;52.540;13.604;2023-11-18T13:29:28;6.45;;;5.85;;
31282;SDS011;17915;52.540;13.604;2023-11-18T13:31:54;6.23;;;5.63;;
31282;SDS011;17915;52.540;13.604;2023-11-18T13:34:21;9.38;;;6.03;;
31282;SDS011;17915;52.540;13.604;2023-11-18T13:36:47;9.57;;;6.77;;
31282;SDS011;17915;52.540;13.604;2023-11-18T13:39:19;13.20;;;7.60;;
31282;SDS011;17915;52.540;13.604;2023-11-18T13:41:48;11.40;;;8.32;;
31282;SDS011;17915;52.540;13.604;2023-11-18T13:44:34;9.43;;;8.50;;
31282;SDS011;17915;52.540;13.604;2023-11-18T13:46:59;15.98;;;10.18;;
31282;SDS011;17915;52.540;13.604;2023-11-18T13:49:29;11.85;;;10.43;;
31282;SDS011;17915;52.540;13.604;2023-11-18T13:51:55;11.18;;;8.98;;
31282;SDS011;17915;52.540;13.604;2023-11-18T13:54:21;11.93;;;9.88;;
31282;SDS011;17915;52.540;13.604;2023-11-18T13:56:47;12.02;;;9.88;;
31282;SDS011;17915;52.540;13.604;2023-11-18T13:59:14;12.32;;;10.02;;
31282;SDS011;17915;52.540;13.604;2023-11-18T14:01:39;14.43;;;9.35;;
31282;SDS011;17915;52.540;13.604;2023-11-18T14:04:05;12.93;;;10.37;;
31282;SDS011;17915;52.540;13.604;2023-11-18T14:06:30;11.43;;;8.40;;
31282;SDS011;17915;52.540;13.604;2023-11-18T14:08:56;12.80;;;9.52;;
31282;SDS011;17915;52.540;13.604;2023-11-18T14:11:22;16.40;;;10.50;;
31282;SDS011;17915;52.540;13.604;2023-11-18T14:13:49;18.75;;;9.30;;
31282;SDS011;17915;52.540;13.604;2023-11-18T14:16:17;11.75;;;9.98;;
31282;SDS011;17915;52.540;13.604;2023-11-18T14:18:45;13.88;;;10.77;;
31282;SDS011;17915;52.540;13.604;2023-11-18T14:21:10;14.37;;;9.77;;
31282;SDS011;17915;52.540;13.604;2023-11-18T14:23:39;15.90;;;11.32;;
31282;SDS011;17915;52.540;13.604;2023-11-18T14:26:05;14.87;;;11.13;;
31282;SDS011;17915;52.540;13.604;2023-11-18T14:28:32;15.55;;;10.77;;
31282;SDS011;17915;52.540;13.604;2023-11-18T14:30:59;21.15;;;11.32;;
31282;SDS011;17915;52.540;13.604;2023-11-18T14:33:25;13.20;;;10.80;;
31282;SDS011;17915;52.540;13.604;2023-11-18T14:35:51;15.87;;;11.63;;
31282;SDS011;17915;52.540;13.604;2023-11-18T14:38:16;20.53;;;10.90;;
31282;SDS011;17915;52.540;13.604;2023-11-18T14:40:45;14.80;;;10.88;;
31282;SDS011;17915;52.540;13.604;2023-11-18T14:43:11;15.38;;;12.02;;
31282;SDS011;17915;52.540;13.604;2023-11-18T14:45:36;15.27;;;10.63;;
31282;SDS011;17915;52.540;13.604;2023-11-18T14:48:02;19.27;;;12.60;;
31282;SDS011;17915;52.540;13.604;2023-11-18T14:50:27;18.77;;;12.53;;
31282;SDS011;17915;52.540;13.604;2023-11-18T14:52:53;21.58;;;13.55;;
31282;SDS011;17915;52.540;13.604;2023-11-18T14:55:28;21.90;;;13.13;;
31282;SDS011;17915;52.540;13.604;2023-11-18T14:57:54;20.38;;;12.57;;
31282;SDS011;17915;52.540;13.604;2023-11-18T15:00:20;16.70;;;13.00;;
31282;SDS011;17915;52.540;13.604;2023-11-18T15:02:52;19.25;;;13.98;;
31282;SDS011;17915;52.540;13.604;2023-11-18T15:05:19;23.98;;;13.70;;
31282;SDS011;17915;52.540;13.604;2023-11-18T15:07:49;20.98;;;13.65;;
31282;SDS011;17915;52.540;13.604;2023-11-18T15:10:16;28.00;;;13.50;;
31282;SDS011;17915;52.540;13.604;2023-11-18T15:12:55;20.40;;;13.13;;
31282;SDS011;17915;52.540;13.604;2023-11-18T15:15:24;25.80;;;14.10;;
31282;SDS011;17915;52.540;13.604;2023-11-18T15:18:02;21.90;;;13.77;;
31282;SDS011;17915;52.540;13.604;2023-11-18T15:20:30;24.48;;;14.20;;
31282;SDS011;17915;52.540;13.604;2023-11-18T15:22:55;20.73;;;13.82;;